Time;durP1;ratioP1;P1;durP2;ratioP2;P2;SDS_P1;SDS_P2;PMS_P1;PMS_P2;Temp;Humidity;BMP_temperature;BMP_pressure;BME280_temperature;BME280_humidity;BME280_pressure;Samples;Min_cycle;Max_cycle;Signal;HPM_P1;HPM_P2
2023/07/03 00:00:06;;;;;;;8.63;2.40;;;16.90;1.00;;;;;;5040826;28;20212;-59
2023/07/03 00:02:33;;;;;;;12.23;2.90;;;16.90;1.00;;;;;;5046013;28;20199;-58
2023/07/03 00:05:03;;;;;;;10.30;3.27;;;16.90;1.00;;;;;;5047397;28;20704;-57
2023/07/03 00:07:30;;;;;;;10.63;3.63;;;16.90;1.00;;;;;;5020782;28;20358;-58
2023/07/03 00:09:57;;;;;;;13.83;2.90;;;16.80;1.00;;;;;;5046502;28;20632;-57
2023/07/03 00:12:24;;;;;;;10.87;2.83;;;16.80;1.00;;;;;;5045801;28;20233;-59
2023/07/03 00:14:51;;;;;;;16.03;4.30;;;16.80;1.00;;;;;;5045538;28;20195;-57
2023/07/03 00:17:18;;;;;;;13.03;3.03;;;16.90;1.00;;;;;;5044923;28;20208;-60
2023/07/03 00:19:44;;;;;;;10.80;3.10;;;16.80;1.00;;;;;;5044098;28;21164;-57
2023/07/03 00:22:11;;;;;;;12.10;3.47;;;16.80;1.00;;;;;;5047870;28;20207;-58
2023/07/03 00:24:38;;;;;;;13.30;3.43;;;16.80;1.00;;;;;;5024246;28;20217;-57
2023/07/03 00:27:05;;;;;;;8.53;2.90;;;16.90;1.00;;;;;;5046307;28;20235;-57
2023/07/03 00:29:33;;;;;;;10.63;2.83;;;16.80;1.00;;;;;;5047678;28;20207;-57
2023/07/03 00:32:00;;;;;;;13.60;3.63;;;16.90;1.00;;;;;;5026212;28;20207;-58
2023/07/03 00:34:28;;;;;;;13.80;3.47;;;16.90;1.00;;;;;;5044062;28;20206;-58
2023/07/03 00:36:55;;;;;;;11.37;2.97;;;16.70;1.00;;;;;;5041553;28;20310;-57
2023/07/03 00:39:22;;;;;;;13.73;3.17;;;16.70;1.00;;;;;;5043786;28;20282;-58
2023/07/03 00:41:49;;;;;;;9.33;2.63;;;16.80;1.00;;;;;;5045422;28;20229;-57
2023/07/03 00:44:18;;;;;;;13.97;2.87;;;16.70;1.00;;;;;;5047295;28;20633;-57
2023/07/03 00:46:50;;;;;;;10.80;3.20;;;16.80;1.00;;;;;;5047295;28;20569;-60
2023/07/03 00:49:19;;;;;;;11.53;3.57;;;16.70;1.00;;;;;;5030127;28;20201;-57
2023/07/03 00:51:55;;;;;;;6.57;2.93;;;16.70;1.00;;;;;;5039113;28;20205;-57
2023/07/03 00:54:23;;;;;;;10.00;2.93;;;16.70;1.00;;;;;;5023538;28;20260;-57
2023/07/03 00:56:50;;;;;;;14.33;3.20;;;16.70;1.00;;;;;;5046050;28;20201;-57
2023/07/03 00:59:17;;;;;;;8.73;2.93;;;16.60;1.00;;;;;;5048823;28;20244;-56
2023/07/03 01:02:13;;;;;;;12.60;3.43;;;16.50;1.00;;;;;;5047335;28;20740;-59
2023/07/03 01:04:49;;;;;;;11.20;3.47;;;16.50;1.00;;;;;;5025316;28;20226;-58
2023/07/03 01:07:21;;;;;;;12.33;3.53;;;16.60;1.00;;;;;;5038762;28;21298;-57
2023/07/03 01:09:56;;;;;;;15.47;4.97;;;16.50;1.00;;;;;;5035820;28;20708;-59
2023/07/03 01:12:26;;;;;;;13.87;3.37;;;16.50;1.00;;;;;;5039441;28;20456;-58
2023/07/03 01:14:57;;;;;;;9.13;3.17;;;16.60;1.00;;;;;;5044192;28;20208;-58
2023/07/03 01:17:28;;;;;;;9.00;3.33;;;16.60;1.00;;;;;;5042678;28;20212;-58
2023/07/03 01:19:57;;;;;;;13.57;3.27;;;16.60;1.00;;;;;;5042736;28;20240;-58
2023/07/03 01:22:26;;;;;;;13.80;3.30;;;16.60;1.00;;;;;;5018482;28;20208;-58
2023/07/03 01:25:04;;;;;;;11.33;3.03;;;16.40;1.00;;;;;;5024128;28;20204;-59
2023/07/03 01:27:36;;;;;;;11.20;3.40;;;16.40;1.00;;;;;;5035332;28;20205;-59
2023/07/03 01:30:07;;;;;;;12.77;3.27;;;16.30;1.00;;;;;;5035408;28;20569;-58
2023/07/03 01:32:36;;;;;;;15.77;3.83;;;16.30;1.00;;;;;;5043269;28;20551;-58
2023/07/03 01:35:04;;;;;;;13.87;3.47;;;16.30;1.00;;;;;;5044456;28;20243;-58
2023/07/03 01:37:34;;;;;;;13.13;3.77;;;16.30;23.00;;;;;;5045532;28;20208;-58
2023/07/03 01:40:02;;;;;;;12.63;3.40;;;16.20;99.90;;;;;;5041650;28;20227;-58
2023/07/03 01:42:30;;;;;;;17.43;3.93;;;16.40;59.20;;;;;;5041774;28;20200;-58
2023/07/03 01:44:57;;;;;;;15.53;4.13;;;16.30;99.90;;;;;;5040904;28;21088;-58
2023/07/03 01:47:24;;;;;;;10.97;3.50;;;16.30;99.90;;;;;;5043451;28;20287;-58
2023/07/03 01:49:51;;;;;;;13.43;2.97;;;16.40;99.90;;;;;;5044353;28;20247;-58
2023/07/03 01:52:21;;;;;;;12.40;3.10;;;16.20;99.90;;;;;;5045051;28;20221;-58
2023/07/03 01:55:06;;;;;;;13.17;3.60;;;16.20;99.90;;;;;;5039642;28;20620;-59
2023/07/03 01:57:45;;;;;;;14.97;3.80;;;16.10;99.90;;;;;;5046757;28;20557;-59
2023/07/03 02:00:19;;;;;;;12.67;3.57;;;16.20;99.90;;;;;;5025953;28;20227;-58
2023/07/03 02:02:50;;;;;;;15.97;3.87;;;16.20;1.00;;;;;;5040283;28;20568;-58
2023/07/03 02:05:22;;;;;;;16.37;3.60;;;16.20;1.00;;;;;;5045274;28;20578;-58
2023/07/03 02:07:54;;;;;;;16.47;4.33;;;16.20;1.00;;;;;;5026568;28;20289;-58
2023/07/03 02:10:21;;;;;;;22.13;4.87;;;16.20;1.00;;;;;;5044924;28;20542;-58
2023/07/03 02:12:48;;;;;;;15.27;3.90;;;16.20;1.00;;;;;;5044913;28;20283;-58
2023/07/03 02:15:15;;;;;;;12.33;3.77;;;16.20;1.00;;;;;;5042955;28;20200;-59
2023/07/03 02:17:42;;;;;;;18.53;4.33;;;16.20;1.00;;;;;;5045558;28;20286;-58
2023/07/03 02:20:16;;;;;;;12.50;3.80;;;16.00;99.90;;;;;;5047273;28;20663;-57
2023/07/03 02:22:43;;;;;;;23.20;5.33;;;16.00;99.90;;;;;;5044290;28;20667;-59
2023/07/03 02:25:10;;;;;;;15.83;4.40;;;16.10;63.60;;;;;;5029937;28;20298;-58
2023/07/03 02:27:38;;;;;;;18.70;5.30;;;16.10;99.90;;;;;;5033899;28;20231;-58
2023/07/03 02:30:06;;;;;;;18.33;4.90;;;16.00;99.90;;;;;;5030069;28;20265;-58
2023/07/03 02:32:37;;;;;;;22.57;5.10;;;16.00;1.00;;;;;;5042388;28;20559;-57
2023/07/03 02:35:06;;;;;;;18.43;4.87;;;16.10;1.00;;;;;;5046841;28;20196;-58
2023/07/03 02:37:33;;;;;;;15.60;4.13;;;16.00;1.00;;;;;;5047993;28;20196;-58
2023/07/03 02:40:00;;;;;;;17.93;4.10;;;16.00;1.00;;;;;;5047852;28;20207;-58
2023/07/03 02:42:27;;;;;;;20.57;4.93;;;16.00;1.00;;;;;;5030768;28;20273;-59
2023/07/03 02:44:54;;;;;;;20.83;5.23;;;16.00;1.00;;;;;;5045664;28;20234;-58
2023/07/03 02:47:21;;;;;;;12.93;4.07;;;15.90;1.00;;;;;;5041257;28;20207;-59
2023/07/03 02:49:48;;;;;;;18.93;4.30;;;15.80;1.00;;;;;;5044181;28;20551;-58
2023/07/03 02:52:15;;;;;;;18.40;4.03;;;15.90;1.00;;;;;;5043890;28;20200;-58
2023/07/03 02:54:42;;;;;;;20.33;4.90;;;16.00;1.00;;;;;;5043834;28;20654;-58
2023/07/03 02:57:09;;;;;;;19.30;5.13;;;15.90;1.00;;;;;;5045340;28;20214;-58
2023/07/03 02:59:35;;;;;;;19.03;4.80;;;15.90;1.00;;;;;;5045029;28;20241;-59
2023/07/03 03:02:03;;;;;;;12.93;4.10;;;15.80;1.00;;;;;;5035957;28;20207;-58
2023/07/03 03:04:29;;;;;;;21.70;5.00;;;15.60;1.00;;;;;;5043950;28;20332;-58
2023/07/03 03:06:56;;;;;;;18.73;4.10;;;15.70;99.90;;;;;;5041594;28;20207;-58
2023/07/03 03:09:23;;;;;;;25.27;3.73;;;15.60;99.90;;;;;;5042562;28;20280;-59
2023/07/03 03:11:50;;;;;;;17.03;4.30;;;15.70;5.00;;;;;;5045770;28;20200;-58
2023/07/03 03:14:17;;;;;;;15.47;4.27;;;15.70;1.00;;;;;;5045329;28;20208;-58
2023/07/03 03:16:44;;;;;;;19.50;4.20;;;15.70;99.90;;;;;;5041277;28;20279;-58
2023/07/03 03:19:11;;;;;;;15.60;4.20;;;15.50;99.90;;;;;;5025277;28;20214;-58
2023/07/03 03:21:38;;;;;;;19.50;4.30;;;15.70;29.60;;;;;;5026443;28;20219;-58
2023/07/03 03:24:05;;;;;;;16.93;5.20;;;15.50;1.00;;;;;;5026753;28;20233;-58
2023/07/03 03:26:32;;;;;;;26.03;5.43;;;15.50;99.90;;;;;;5044070;28;20203;-59
2023/07/03 03:28:59;;;;;;;19.17;4.20;;;15.40;1.00;;;;;;5045944;28;20195;-58
2023/07/03 03:31:26;;;;;;;18.20;4.87;;;15.50;1.00;;;;;;5022274;28;20196;-58
2023/07/03 03:33:53;;;;;;;20.50;5.83;;;15.60;1.00;;;;;;5040532;28;20196;-59
2023/07/03 03:36:20;;;;;;;18.17;4.60;;;15.70;99.90;;;;;;5026532;28;20258;-58
2023/07/03 03:38:47;;;;;;;22.33;4.40;;;15.50;99.90;;;;;;5044156;28;20223;-58
2023/07/03 03:41:14;;;;;;;19.00;5.67;;;15.40;1.00;;;;;;5044502;28;20200;-58
2023/07/03 03:43:41;;;;;;;20.17;4.10;;;15.50;1.00;;;;;;5045865;28;20216;-58
2023/07/03 03:46:08;;;;;;;18.90;4.13;;;15.50;1.00;;;;;;5042929;28;20216;-58
2023/07/03 03:48:35;;;;;;;19.07;3.90;;;15.40;1.00;;;;;;5021115;28;20290;-58
2023/07/03 03:51:03;;;;;;;13.07;4.00;;;15.60;1.00;;;;;;5043220;28;20680;-59
2023/07/03 03:53:30;;;;;;;17.87;5.37;;;15.50;1.00;;;;;;5041027;28;21384;-59
2023/07/03 03:55:57;;;;;;;13.00;3.80;;;15.40;35.30;;;;;;5025874;28;20294;-58
2023/07/03 03:58:24;;;;;;;19.70;5.00;;;15.30;99.90;;;;;;5039688;28;20233;-58
2023/07/03 04:00:51;;;;;;;12.63;4.70;;;15.20;1.00;;;;;;5038958;28;20256;-58
2023/07/03 04:03:19;;;;;;;16.47;4.33;;;15.20;1.00;;;;;;5043613;28;20323;-58
2023/07/03 04:05:46;;;;;;;14.90;3.73;;;15.30;1.00;;;;;;5031326;28;20208;-58
2023/07/03 04:08:14;;;;;;;19.63;5.37;;;15.30;99.90;;;;;;5045990;28;20245;-58
2023/07/03 04:10:44;;;;;;;22.40;4.80;;;15.20;1.00;;;;;;5040703;28;20235;-58
2023/07/03 04:13:11;;;;;;;18.13;4.20;;;15.20;1.00;;;;;;5044220;28;20203;-59
2023/07/03 04:15:52;;;;;;;18.47;4.73;;;15.30;1.00;;;;;;5042468;28;20202;-58
2023/07/03 04:18:20;;;;;;;19.77;4.23;;;15.30;1.00;;;;;;5042749;28;20298;-58
2023/07/03 04:20:48;;;;;;;20.17;5.70;;;15.20;1.00;;;;;;5044489;28;20249;-58
2023/07/03 04:23:16;;;;;;;22.93;5.60;;;15.20;1.00;;;;;;5018080;28;20230;-58
2023/07/03 04:25:43;;;;;;;22.60;4.63;;;15.30;1.00;;;;;;5041596;28;20230;-58
2023/07/03 04:28:11;;;;;;;17.33;4.50;;;15.30;1.00;;;;;;5043062;28;20204;-59
2023/07/03 04:30:38;;;;;;;14.77;4.30;;;15.20;1.00;;;;;;5041257;28;20210;-59
2023/07/03 04:33:05;;;;;;;18.40;4.80;;;15.30;99.90;;;;;;5024918;28;20201;-58
2023/07/03 04:35:32;;;;;;;20.37;5.40;;;15.40;1.00;;;;;;5044796;28;20204;-58
2023/07/03 04:38:01;;;;;;;24.27;4.50;;;15.40;1.00;;;;;;5039646;28;20207;-58
2023/07/03 04:40:29;;;;;;;14.07;4.50;;;15.30;1.00;;;;;;5035295;28;20243;-59
2023/07/03 04:42:57;;;;;;;22.97;4.90;;;15.20;1.00;;;;;;5039512;28;20203;-59
2023/07/03 04:45:30;;;;;;;21.20;4.90;;;15.20;99.90;;;;;;5008266;28;20738;-59
2023/07/03 04:47:56;;;;;;;21.10;6.53;;;15.20;99.90;;;;;;5041697;28;20202;-59
2023/07/03 04:50:24;;;;;;;16.50;5.07;;;15.20;1.00;;;;;;5042552;28;20202;-59
2023/07/03 04:52:52;;;;;;;20.47;4.93;;;15.30;44.80;;;;;;5040469;28;20203;-59
2023/07/03 04:55:22;;;;;;;25.73;4.47;;;15.20;1.00;;;;;;5046144;28;20361;-59
2023/07/03 04:57:49;;;;;;;17.50;4.47;;;15.20;1.00;;;;;;5037469;28;20702;-59
2023/07/03 05:00:19;;;;;;;17.33;4.67;;;15.30;1.00;;;;;;5040613;28;20210;-59
2023/07/03 05:02:48;;;;;;;16.50;4.87;;;15.10;1.00;;;;;;5038746;28;20240;-59
2023/07/03 05:05:16;;;;;;;16.20;4.67;;;15.30;99.90;;;;;;5043236;28;20800;-58
2023/07/03 05:07:45;;;;;;;24.10;4.57;;;15.30;99.90;;;;;;5043427;28;20231;-59
2023/07/03 05:10:14;;;;;;;24.73;5.60;;;15.30;99.90;;;;;;5043993;28;20202;-59
2023/07/03 05:12:42;;;;;;;32.30;5.53;;;15.30;99.90;;;;;;5044944;28;20200;-59
2023/07/03 05:15:11;;;;;;;22.97;6.03;;;15.30;1.00;;;;;;5039512;28;20282;-59
2023/07/03 05:17:39;;;;;;;21.10;5.20;;;15.40;99.90;;;;;;5030053;28;20247;-59
2023/07/03 05:20:13;;;;;;;22.37;5.07;;;15.40;99.90;;;;;;5037331;28;20202;-59
2023/07/03 05:22:42;;;;;;;17.07;4.90;;;15.40;99.90;;;;;;5039095;28;20211;-59
2023/07/03 05:25:11;;;;;;;19.03;4.73;;;15.20;99.90;;;;;;5043338;28;20222;-59
2023/07/03 05:27:38;;;;;;;24.53;5.27;;;15.30;1.00;;;;;;5042417;28;20239;-59
2023/07/03 05:30:07;;;;;;;20.97;4.90;;;15.40;1.00;;;;;;5035310;28;20199;-59
2023/07/03 05:32:35;;;;;;;19.13;4.37;;;15.50;97.50;;;;;;5034513;28;21410;-59
2023/07/03 05:35:04;;;;;;;16.87;4.40;;;15.60;1.00;;;;;;5037975;28;20214;-59
2023/07/03 05:37:31;;;;;;;15.87;4.77;;;15.70;99.90;;;;;;5018457;28;20218;-59
2023/07/03 05:39:58;;;;;;;14.97;5.20;;;15.60;1.00;;;;;;5035954;28;20246;-59
2023/07/03 05:42:25;;;;;;;19.83;4.73;;;15.60;1.00;;;;;;5038778;28;20565;-59
2023/07/03 05:44:52;;;;;;;15.43;5.13;;;15.60;1.00;;;;;;4642989;28;9999733;-59
2023/07/03 05:47:19;;;;;;;21.60;4.57;;;15.60;99.90;;;;;;5023288;28;20208;-61
2023/07/03 05:49:48;;;;;;;18.23;5.63;;;15.60;10.00;;;;;;5024344;28;20607;-58
2023/07/03 05:52:15;;;;;;;24.17;5.40;;;15.50;99.90;;;;;;5035941;28;20699;-58
2023/07/03 05:54:42;;;;;;;18.63;4.77;;;15.60;1.00;;;;;;5037841;28;20199;-58
2023/07/03 05:57:10;;;;;;;20.83;4.60;;;15.70;1.00;;;;;;5035070;28;20203;-58
2023/07/03 05:59:39;;;;;;;15.73;4.27;;;15.50;1.00;;;;;;5017103;28;21722;-58
2023/07/03 06:02:09;;;;;;;21.67;4.67;;;15.40;99.90;;;;;;5022164;28;20208;-58
2023/07/03 06:04:37;;;;;;;20.17;5.93;;;15.50;1.00;;;;;;5030731;28;20366;-59
2023/07/03 06:07:04;;;;;;;19.33;4.47;;;15.60;1.00;;;;;;5009432;28;20234;-58
2023/07/03 06:09:33;;;;;;;17.27;4.53;;;15.70;99.90;;;;;;5031226;28;20714;-58
2023/07/03 06:12:03;;;;;;;15.40;4.37;;;15.60;99.90;;;;;;5037626;28;20206;-58
2023/07/03 06:14:31;;;;;;;21.90;5.03;;;15.60;1.00;;;;;;5031482;28;20199;-58
2023/07/03 06:16:59;;;;;;;16.87;4.80;;;15.60;99.90;;;;;;5024626;28;20200;-58
2023/07/03 06:19:27;;;;;;;13.40;4.60;;;15.70;1.00;;;;;;5034631;28;20196;-58
2023/07/03 06:21:54;;;;;;;20.10;4.67;;;15.90;1.00;;;;;;5035128;28;20217;-58
2023/07/03 06:24:22;;;;;;;17.60;4.07;;;16.10;99.90;;;;;;5034569;28;20269;-58
2023/07/03 06:26:50;;;;;;;21.53;5.17;;;16.00;1.00;;;;;;5033969;28;20683;-58
2023/07/03 06:29:18;;;;;;;23.43;4.60;;;16.10;1.00;;;;;;5028992;28;20668;-58
2023/07/03 06:31:45;;;;;;;21.77;5.77;;;16.00;1.00;;;;;;5031088;28;21618;-58
2023/07/03 06:34:12;;;;;;;20.57;4.60;;;16.10;1.00;;;;;;5012306;28;20203;-59
2023/07/03 06:36:39;;;;;;;16.73;5.00;;;16.10;99.90;;;;;;5033585;28;20244;-59
2023/07/03 06:39:08;;;;;;;18.90;4.53;;;16.00;99.90;;;;;;5031599;28;20203;-58
2023/07/03 06:41:35;;;;;;;17.67;4.47;;;16.10;99.90;;;;;;5037839;28;20293;-58
2023/07/03 06:44:04;;;;;;;14.70;4.17;;;16.00;91.60;;;;;;5039264;28;20203;-60
2023/07/03 06:46:32;;;;;;;15.07;4.27;;;16.00;99.90;;;;;;5038753;28;20223;-58
2023/07/03 06:49:00;;;;;;;22.53;4.47;;;16.10;99.90;;;;;;5033971;28;20199;-58
2023/07/03 06:51:27;;;;;;;22.30;4.80;;;16.10;99.90;;;;;;5037639;28;20195;-58
2023/07/03 06:53:54;;;;;;;18.23;4.10;;;16.10;1.00;;;;;;5036041;28;20227;-58
2023/07/03 06:56:21;;;;;;;14.30;4.70;;;16.10;1.00;;;;;;5037098;28;20227;-59
2023/07/03 06:58:49;;;;;;;13.07;4.43;;;16.10;4.60;;;;;;5014411;28;20250;-59
2023/07/03 07:01:20;;;;;;;18.10;4.50;;;16.10;1.00;;;;;;5035087;28;20432;-59
2023/07/03 07:03:48;;;;;;;14.27;4.47;;;16.20;1.00;;;;;;5030887;28;20227;-59
2023/07/03 07:06:22;;;;;;;12.37;4.00;;;16.20;1.00;;;;;;5035641;28;20215;-59
2023/07/03 07:08:50;;;;;;;16.97;4.37;;;16.20;1.00;;;;;;5037779;28;20264;-59
2023/07/03 07:11:21;;;;;;;15.07;3.57;;;16.20;1.00;;;;;;5023724;28;20286;-59
2023/07/03 07:13:50;;;;;;;10.93;3.83;;;16.20;1.00;;;;;;5031216;28;20230;-59
2023/07/03 07:16:22;;;;;;;15.67;4.40;;;16.20;99.90;;;;;;5031190;28;20214;-58
2023/07/03 07:18:52;;;;;;;14.20;4.07;;;16.40;1.00;;;;;;5020860;28;20211;-59
2023/07/03 07:21:20;;;;;;;18.13;5.00;;;16.40;1.00;;;;;;5018234;28;20585;-59
2023/07/03 07:23:52;;;;;;;12.93;3.77;;;16.50;1.00;;;;;;5025791;28;20207;-59
2023/07/03 07:26:21;;;;;;;15.50;4.33;;;16.60;99.90;;;;;;5033224;28;20285;-59
2023/07/03 07:28:48;;;;;;;10.70;3.70;;;16.90;1.00;;;;;;5017046;28;20200;-59
2023/07/03 07:31:22;;;;;;;14.67;3.67;;;16.90;99.90;;;;;;5040043;28;20307;-59
2023/07/03 07:33:50;;;;;;;9.87;3.73;;;16.80;1.00;;;;;;5026512;28;20207;-59
2023/07/03 07:36:25;;;;;;;15.63;4.00;;;16.90;99.90;;;;;;5031457;28;20208;-59
2023/07/03 07:38:53;;;;;;;12.33;3.77;;;16.90;99.90;;;;;;5034634;28;20650;-58
2023/07/03 07:41:24;;;;;;;12.90;3.87;;;16.80;47.00;;;;;;5038340;28;20202;-59
2023/07/03 07:43:53;;;;;;;12.93;3.97;;;16.70;92.30;;;;;;5028812;28;20204;-59
2023/07/03 07:46:25;;;;;;;14.33;3.93;;;16.70;1.00;;;;;;5029377;28;20212;-58
2023/07/03 07:48:52;;;;;;;16.67;4.53;;;16.70;79.00;;;;;;5031118;28;20267;-59
2023/07/03 07:51:19;;;;;;;13.87;4.00;;;16.70;3.00;;;;;;5036656;28;20250;-59
2023/07/03 07:53:46;;;;;;;12.67;3.90;;;16.60;22.80;;;;;;5034946;28;20236;-59
2023/07/03 07:56:13;;;;;;;18.77;4.37;;;16.60;99.90;;;;;;5014503;28;20221;-59
2023/07/03 07:58:40;;;;;;;15.73;4.03;;;16.60;1.00;;;;;;5014505;28;20577;-58
2023/07/03 08:01:10;;;;;;;15.03;3.97;;;16.40;99.90;;;;;;5030548;28;20251;-59
2023/07/03 08:03:39;;;;;;;16.73;3.73;;;16.20;99.90;;;;;;5031023;28;20619;-59
2023/07/03 08:06:06;;;;;;;12.07;4.07;;;16.20;99.90;;;;;;5033418;28;20310;-59
2023/07/03 08:08:33;;;;;;;14.43;4.00;;;16.20;99.90;;;;;;5029848;28;20241;-60
2023/07/03 08:11:02;;;;;;;16.07;3.90;;;16.10;99.90;;;;;;5037266;28;20240;-61
2023/07/03 08:13:31;;;;;;;11.93;3.40;;;16.10;99.90;;;;;;5030294;28;20346;-59
2023/07/03 08:15:58;;;;;;;11.13;3.43;;;16.20;1.00;;;;;;5035349;28;20211;-59
2023/07/03 08:18:26;;;;;;;13.27;4.47;;;16.30;1.00;;;;;;5026499;28;20270;-59
2023/07/03 08:20:53;;;;;;;9.87;3.40;;;16.40;1.00;;;;;;5020409;28;20207;-61
2023/07/03 08:23:21;;;;;;;16.43;4.30;;;16.40;1.00;;;;;;5030566;28;20746;-61
2023/07/03 08:25:53;;;;;;;10.30;3.50;;;16.40;1.00;;;;;;5034408;28;20226;-61
2023/07/03 08:28:22;;;;;;;7.27;3.23;;;16.50;1.00;;;;;;5012933;28;20213;-59
2023/07/03 08:30:49;;;;;;;10.80;3.37;;;16.70;1.00;;;;;;5012641;28;20528;-59
2023/07/03 08:33:16;;;;;;;16.63;4.13;;;16.70;20.30;;;;;;5034364;28;20558;-59
2023/07/03 08:35:43;;;;;;;14.03;3.90;;;16.70;1.00;;;;;;5035435;28;20207;-59
2023/07/03 08:38:13;;;;;;;12.83;3.87;;;16.70;1.00;;;;;;5034708;28;20231;-59
2023/07/03 08:40:42;;;;;;;11.27;2.90;;;16.80;99.90;;;;;;5031232;28;20648;-61
2023/07/03 08:43:13;;;;;;;6.87;2.80;;;16.90;1.00;;;;;;5032199;28;20210;-59
2023/07/03 08:45:44;;;;;;;19.43;3.70;;;16.90;99.90;;;;;;5018755;28;20249;-59
2023/07/03 08:48:18;;;;;;;15.47;3.20;;;17.00;99.90;;;;;;5032380;28;20231;-59
2023/07/03 08:50:50;;;;;;;13.43;3.40;;;17.10;99.90;;;;;;5041282;28;20222;-59
2023/07/03 08:53:22;;;;;;;10.47;3.20;;;17.00;1.00;;;;;;5038389;28;20283;-59
2023/07/03 08:55:57;;;;;;;10.30;2.77;;;16.90;1.00;;;;;;5032605;28;20206;-60
2023/07/03 08:58:25;;;;;;;11.87;3.20;;;17.20;99.50;;;;;;5033599;28;20207;-59
2023/07/03 09:01:08;;;;;;;9.03;3.07;;;17.30;1.00;;;;;;5032527;28;20215;-59
2023/07/03 09:04:07;;;;;;;9.70;3.27;;;17.40;1.00;;;;;;5034332;28;20584;-62
2023/07/03 09:06:53;;;;;;;10.33;2.53;;;17.40;1.00;;;;;;5018260;28;20262;-59
2023/07/03 09:09:51;;;;;;;8.47;2.73;;;17.30;1.00;;;;;;5036390;28;20251;-60
2023/07/03 09:12:24;;;;;;;9.83;3.00;;;17.40;1.00;;;;;;5007510;28;20283;-60
2023/07/03 09:15:07;;;;;;;10.40;2.97;;;17.30;99.90;;;;;;5033581;28;20599;-60
2023/07/03 09:17:35;;;;;;;7.07;2.40;;;17.40;99.90;;;;;;5033250;28;20214;-59
2023/07/03 09:20:04;;;;;;;10.13;2.63;;;17.40;99.90;;;;;;5029411;28;20236;-59
2023/07/03 09:22:39;;;;;;;9.43;3.10;;;17.40;99.90;;;;;;5006478;28;20192;-58
2023/07/03 09:25:12;;;;;;;5.77;2.60;;;17.40;99.90;;;;;;5031175;28;20203;-59
2023/07/03 09:27:41;;;;;;;7.37;2.30;;;17.40;99.90;;;;;;5026068;28;20208;-59
2023/07/03 09:30:12;;;;;;;8.97;2.30;;;17.20;1.00;;;;;;5027700;28;20990;-60
2023/07/03 09:32:40;;;;;;;9.47;2.60;;;17.30;21.60;;;;;;5033269;28;20202;-59
2023/07/03 09:35:20;;;;;;;12.13;3.10;;;17.40;99.90;;;;;;5038480;28;20624;-58
2023/07/03 09:37:59;;;;;;;9.03;3.00;;;17.20;1.00;;;;;;5031519;28;20196;-59
2023/07/03 09:40:27;;;;;;;11.47;2.67;;;17.20;50.10;;;;;;5040446;28;20546;-60
2023/07/03 09:42:55;;;;;;;6.07;2.60;;;17.20;17.50;;;;;;5029080;28;20202;-59
2023/07/03 09:45:28;;;;;;;9.60;2.77;;;17.10;1.00;;;;;;5012472;28;20199;-60
2023/07/03 09:47:57;;;;;;;10.57;2.33;;;17.10;1.00;;;;;;5028964;28;21129;-59
2023/07/03 09:50:34;;;;;;;10.10;2.57;;;17.10;1.00;;;;;;5037221;28;20199;-59
2023/07/03 09:53:02;;;;;;;6.10;2.03;;;17.00;1.00;;;;;;5012599;28;20242;-60
2023/07/03 09:55:36;;;;;;;12.23;3.30;;;17.20;1.00;;;;;;5036865;28;20191;-60
2023/07/03 09:58:12;;;;;;;7.37;2.60;;;17.40;1.00;;;;;;5033182;28;20203;-60
2023/07/03 10:00:48;;;;;;;9.97;2.70;;;17.50;1.00;;;;;;5013731;28;20256;-60
2023/07/03 10:03:28;;;;;;;6.67;3.10;;;17.60;1.00;;;;;;5024855;28;20227;-60
2023/07/03 10:06:14;;;;;;;15.63;3.30;;;17.80;1.00;;;;;;5026229;28;20219;-59
2023/07/03 10:08:58;;;;;;;9.77;3.37;;;17.80;1.00;;;;;;5007051;28;20570;-60
2023/07/03 10:11:54;;;;;;;7.53;2.47;;;17.90;1.00;;;;;;5029053;28;21562;-60
2023/07/03 10:14:36;;;;;;;9.23;3.37;;;17.80;1.00;;;;;;5023385;28;20558;-59
2023/07/03 10:17:12;;;;;;;13.53;2.57;;;18.10;1.00;;;;;;5008553;28;20210;-59
2023/07/03 10:19:42;;;;;;;10.90;3.03;;;18.30;1.00;;;;;;5015446;28;20214;-60
2023/07/03 10:22:11;;;;;;;11.87;2.57;;;18.40;1.00;;;;;;5036582;28;20736;-59
2023/07/03 10:24:41;;;;;;;9.47;2.60;;;18.50;1.00;;;;;;5013280;28;20427;-59
2023/07/03 10:27:08;;;;;;;9.10;3.30;;;18.50;1.00;;;;;;5022970;28;20230;-60
2023/07/03 10:29:44;;;;;;;7.23;2.63;;;18.40;1.00;;;;;;5020770;28;20330;-59
2023/07/03 10:32:14;;;;;;;7.67;2.17;;;18.40;1.00;;;;;;5036657;28;20214;-60
2023/07/03 10:34:48;;;;;;;8.07;2.33;;;18.30;1.00;;;;;;5020380;28;20849;-59
2023/07/03 10:37:18;;;;;;;14.67;2.60;;;18.40;1.00;;;;;;5006788;28;20220;-59
2023/07/03 10:40:17;;;;;;;10.30;2.57;;;18.90;1.00;;;;;;5030663;28;20212;-59
2023/07/03 10:42:54;;;;;;;5.50;2.20;;;18.70;1.00;;;;;;5026249;28;20218;-60
2023/07/03 10:45:22;;;;;;;9.93;2.20;;;18.40;1.00;;;;;;5012819;28;20754;-59
2023/07/03 10:48:16;;;;;;;9.17;2.80;;;18.40;1.00;;;;;;5010801;28;20215;-60
2023/07/03 10:50:50;;;;;;;5.70;2.00;;;18.40;1.00;;;;;;5023534;28;20206;-59
2023/07/03 10:53:40;;;;;;;8.37;2.13;;;18.30;1.00;;;;;;5034990;28;20205;-59
2023/07/03 10:56:19;;;;;;;7.53;1.70;;;18.60;1.00;;;;;;5032534;28;20203;-59
2023/07/03 10:59:25;;;;;;;5.93;2.00;;;19.20;1.00;;;;;;5029979;28;20795;-60
2023/07/03 11:02:08;;;;;;;9.33;2.07;;;19.70;1.00;;;;;;5028223;28;20319;-59
2023/07/03 11:04:48;;;;;;;7.23;2.57;;;19.80;99.90;;;;;;5030461;28;20716;-60
2023/07/03 11:07:34;;;;;;;7.17;2.20;;;20.20;1.00;;;;;;5034849;28;20235;-60
2023/07/03 11:10:24;;;;;;;7.37;1.90;;;20.20;99.90;;;;;;5026057;28;20203;-61
2023/07/03 11:13:12;;;;;;;5.07;2.43;;;19.50;99.90;;;;;;5011770;28;20908;-60
2023/07/03 11:16:02;;;;;;;9.00;2.33;;;19.20;1.00;;;;;;5010165;28;20203;-59
2023/07/03 11:18:31;;;;;;;6.17;1.93;;;19.00;1.00;;;;;;5030051;28;20855;-60
2023/07/03 11:21:35;;;;;;;8.83;2.57;;;18.70;1.00;;;;;;5025434;28;20388;-61
2023/07/03 11:24:13;;;;;;;7.67;2.13;;;18.90;1.00;;;;;;5014744;28;20293;-60
2023/07/03 11:26:46;;;;;;;10.60;2.10;;;19.30;1.00;;;;;;5015850;28;20214;-60
2023/07/03 11:29:17;;;;;;;14.83;2.23;;;19.80;1.00;;;;;;5030386;28;20321;-59
2023/07/03 11:31:45;;;;;;;4.60;1.57;;;20.10;99.90;;;;;;5022763;28;20198;-60
2023/07/03 11:34:15;;;;;;;7.80;1.73;;;20.30;99.90;;;;;;5032081;28;20200;-60
2023/07/03 11:36:51;;;;;;;4.03;1.20;;;20.40;99.90;;;;;;5012002;28;20266;-60
2023/07/03 11:39:33;;;;;;;7.53;2.20;;;20.50;99.90;;;;;;5030495;28;20235;-60
2023/07/03 11:42:03;;;;;;;7.37;1.87;;;20.80;99.90;;;;;;5017666;28;20250;-61
2023/07/03 11:44:56;;;;;;;5.67;1.90;;;20.60;99.90;;;;;;5013285;28;21938;-59
2023/07/03 11:47:24;;;;;;;9.73;2.37;;;20.00;99.90;;;;;;5024865;28;20366;-59
2023/07/03 11:49:54;;;;;;;5.53;2.00;;;19.50;99.90;;;;;;5008443;28;20250;-59
2023/07/03 11:52:31;;;;;;;8.37;2.37;;;19.30;1.00;;;;;;5031110;28;20223;-60
2023/07/03 11:55:20;;;;;;;9.00;2.50;;;19.10;1.00;;;;;;5025951;28;20297;-59
2023/07/03 11:57:55;;;;;;;7.47;1.70;;;19.30;1.00;;;;;;5020764;28;20200;-60
2023/07/03 12:00:40;;;;;;;8.63;1.87;;;19.90;1.00;;;;;;5031257;28;20212;-59
2023/07/03 12:03:08;;;;;;;6.23;1.93;;;20.30;99.90;;;;;;5004510;28;20196;-58
2023/07/03 12:05:47;;;;;;;5.77;2.10;;;20.70;99.90;;;;;;5027341;28;20678;-59
2023/07/03 12:08:18;;;;;;;7.17;1.93;;;21.10;1.00;;;;;;5025714;28;20235;-58
2023/07/03 12:10:52;;;;;;;2.80;1.30;;;20.80;99.90;;;;;;5026935;28;20732;-59
2023/07/03 12:13:41;;;;;;;5.97;1.43;;;20.80;99.90;;;;;;5034079;28;20196;-59
2023/07/03 12:16:27;;;;;;;3.33;1.40;;;21.00;99.90;;;;;;5029227;28;20254;-59
2023/07/03 12:18:57;;;;;;;10.37;2.13;;;20.50;99.90;;;;;;5033856;28;20204;-59
2023/07/03 12:21:25;;;;;;;5.30;1.50;;;20.50;99.90;;;;;;5033203;28;20207;-59
2023/07/03 12:23:51;;;;;;;4.13;2.07;;;20.30;99.90;;;;;;5027723;28;20616;-59
2023/07/03 12:26:18;;;;;;;4.43;2.10;;;20.10;99.90;;;;;;5023091;28;20215;-59
2023/07/03 12:28:46;;;;;;;6.00;1.53;;;19.90;99.90;;;;;;5015937;28;20266;-58
2023/07/03 12:31:13;;;;;;;5.10;2.20;;;20.10;99.90;;;;;;5025740;28;20278;-59
2023/07/03 12:33:52;;;;;;;4.93;1.60;;;20.20;99.90;;;;;;5029234;28;20375;-59
2023/07/03 12:36:37;;;;;;;6.10;1.90;;;19.90;99.90;;;;;;5040082;28;20199;-59
2023/07/03 12:39:16;;;;;;;4.73;2.00;;;19.80;99.90;;;;;;5034861;28;20293;-59
2023/07/03 12:41:43;;;;;;;8.40;2.47;;;19.50;99.90;;;;;;5036771;28;20199;-58
2023/07/03 12:44:10;;;;;;;5.33;2.23;;;19.40;99.90;;;;;;5030920;28;20196;-59
2023/07/03 12:46:40;;;;;;;9.20;2.00;;;19.30;99.90;;;;;;5032999;28;20220;-59
2023/07/03 12:49:11;;;;;;;3.70;1.93;;;19.30;99.90;;;;;;5031462;28;20204;-59
2023/07/03 12:51:53;;;;;;;6.67;2.13;;;19.30;99.90;;;;;;5014652;28;20281;-58
2023/07/03 12:54:21;;;;;;;6.00;1.80;;;19.70;99.90;;;;;;5029178;28;20196;-59
2023/07/03 12:56:52;;;;;;;7.57;1.60;;;19.70;99.90;;;;;;5032524;28;20211;-59
2023/07/03 12:59:21;;;;;;;6.30;1.83;;;19.30;99.90;;;;;;5029403;28;20211;-59
2023/07/03 13:01:52;;;;;;;4.93;1.60;;;19.20;99.90;;;;;;5017652;28;20207;-59
2023/07/03 13:04:33;;;;;;;9.87;1.87;;;19.10;99.90;;;;;;4993122;28;20254;-59